createdAt,value
2019-06-10T00:00:13.513Z,5.50
2019-06-10T00:05:14.588Z,8.37
2019-06-10T00:10:22.205Z,6.97
2019-06-10T00:15:31.361Z,9.52
2019-06-10T00:20:37.129Z,6.34
2019-06-10T00:25:44.737Z,5.57
2019-06-10T00:30:52.336Z,5.10
2019-06-10T00:36:03.695Z,5.83
2019-06-10T00:41:08.909Z,5.49
2019-06-10T00:46:14.716Z,5.59
2019-06-10T00:51:22.313Z,5.82
2019-06-10T00:56:30.833Z,5.18
2019-06-10T01:01:37.085Z,5.72
2019-06-10T01:06:44.728Z,5.78
2019-06-10T01:11:52.316Z,5.87
2019-06-10T01:17:01.281Z,5.62
2019-06-10T01:22:08.167Z,5.74
2019-06-10T01:27:15.123Z,5.91
2019-06-10T01:32:21.796Z,5.84
2019-06-10T01:37:31.929Z,5.69
2019-06-10T01:42:30.671Z,5.72
2019-06-10T01:47:36.761Z,6.27
2019-06-10T01:52:44.392Z,6.25
2019-06-10T01:57:52.026Z,6.59
2019-06-10T02:03:03.353Z,6.18
2019-06-10T02:08:06.744Z,6.09
2019-06-10T02:13:15.127Z,6.20
2019-06-10T02:18:22.503Z,6.39
2019-06-10T02:23:31.057Z,6.95
2019-06-10T02:28:35.868Z,6.70
2019-06-10T02:33:43.480Z,6.95
2019-06-10T02:38:53.995Z,7.51
2019-06-10T02:43:58.582Z,7.54
2019-06-10T02:49:26.454Z,8.22
2019-06-10T02:54:16.182Z,7.53
2019-06-10T02:59:26.034Z,7.55
2019-06-10T03:04:32.565Z,8.29
2019-06-10T03:09:35.833Z,8.69
2019-06-10T03:14:42.302Z,7.84
2019-06-10T03:19:52.963Z,7.46
2019-06-10T03:24:57.108Z,7.94
2019-06-10T03:30:14.763Z,7.36
2019-06-10T03:35:13.187Z,7.47
2019-06-10T03:40:19.129Z,7.54
2019-06-10T03:45:28.391Z,6.98
2019-06-10T03:50:33.953Z,6.64
2019-06-10T03:55:42.357Z,6.61
2019-06-10T04:00:48.753Z,6.74
2019-06-10T04:05:56.483Z,7.47
2019-06-10T04:11:04.060Z,6.80
2019-06-10T04:16:13.023Z,6.70
2019-06-10T04:21:20.290Z,7.55
2019-06-10T04:26:28.179Z,6.94
2019-06-10T04:31:33.227Z,7.16
2019-06-10T04:36:42.360Z,7.34
2019-06-10T04:41:47.858Z,7.68
2019-06-10T04:46:55.440Z,7.69
2019-06-10T04:52:18.646Z,7.78
2019-06-10T04:57:06.412Z,6.98
2019-06-10T05:02:14.311Z,6.79
2019-06-10T05:07:23.754Z,7.34
2019-06-10T05:12:29.628Z,7.06
2019-06-10T05:17:45.338Z,7.56
2019-06-10T05:22:52.843Z,7.57
2019-06-10T05:27:48.004Z,7.59
2019-06-10T05:32:55.661Z,8.04
2019-06-10T05:38:03.272Z,7.32
2019-06-10T05:43:12.897Z,7.97
2019-06-10T05:48:18.039Z,7.89
2019-06-10T05:53:26.511Z,9.04
2019-06-10T05:58:34.535Z,8.83
2019-06-10T06:03:43.629Z,9.01
2019-06-10T06:08:47.972Z,7.98
2019-06-10T06:13:55.679Z,9.27
2019-06-10T06:19:03.395Z,8.70
2019-06-10T06:24:12.822Z,8.24
2019-06-10T06:29:18.046Z,8.17
2019-06-10T06:34:26.858Z,7.37
2019-06-10T06:39:34.735Z,8.54
2019-06-10T06:44:40.022Z,8.68
2019-06-10T06:49:47.625Z,8.33
2019-06-10T06:54:55.233Z,8.82
2019-06-10T07:00:33.833Z,8.44
2019-06-10T07:05:12.399Z,8.39
2019-06-10T07:10:17.308Z,8.72
2019-06-10T07:15:24.929Z,7.84
2019-06-10T07:20:33.757Z,8.00
2019-06-10T07:25:40.573Z,8.64
2019-06-10T07:30:51.784Z,8.94
2019-06-10T07:35:56.592Z,8.41
2019-06-10T07:41:02.663Z,8.76
2019-06-10T07:46:08.748Z,8.68
2019-06-10T07:51:16.405Z,8.63
2019-06-10T07:56:24.030Z,8.79
2019-06-10T08:01:33.311Z,8.64
2019-06-10T08:06:39.818Z,9.06
2019-06-10T08:11:48.298Z,9.47
2019-06-10T08:16:53.317Z,9.07
2019-06-10T08:22:02.900Z,8.29
2019-06-10T08:27:07.870Z,9.25
2019-06-10T08:32:15.725Z,9.71
2019-06-10T08:37:23.595Z,8.73
2019-06-10T08:42:32.388Z,10.00
2019-06-10T08:47:39.193Z,9.16
2019-06-10T08:53:03.439Z,9.95
2019-06-10T08:57:53.971Z,9.54
2019-06-10T09:02:59.624Z,9.68
2019-06-10T09:08:07.472Z,9.57
2019-06-10T09:13:15.141Z,9.28
2019-06-10T09:18:23.236Z,9.94
2019-06-10T09:23:29.942Z,10.36
2019-06-10T09:28:37.557Z,9.64
2019-06-10T09:33:50.217Z,9.33
2019-06-10T09:38:55.547Z,9.58
2019-06-10T09:43:59.962Z,9.95
2019-06-10T09:49:06.629Z,9.22
2019-06-10T09:54:14.277Z,9.13
2019-06-10T09:59:23.473Z,9.81
2019-06-10T10:04:29.022Z,9.71
2019-06-10T10:09:37.159Z,10.43
2019-06-10T10:14:46.028Z,9.21
2019-06-10T10:19:55.789Z,9.62
2019-06-10T10:24:58.113Z,9.94
2019-06-10T10:30:05.721Z,10.32
2019-06-10T10:35:13.330Z,9.70
2019-06-10T10:40:23.287Z,9.40
2019-06-10T10:45:28.470Z,8.94
2019-06-10T10:50:36.081Z,9.93
2019-06-10T10:55:43.803Z,9.21
2019-06-10T11:00:54.484Z,9.15
2019-06-10T11:06:00.633Z,9.33
2019-06-10T11:11:05.902Z,9.21
2019-06-10T11:16:12.294Z,8.67
2019-06-10T11:21:22.708Z,9.07
2019-06-10T11:26:27.078Z,8.72
2019-06-10T11:31:34.702Z,8.97
2019-06-10T11:36:42.702Z,8.46
2019-06-10T11:41:50.873Z,9.06
2019-06-10T11:46:59.497Z,8.53
2019-06-10T11:52:03.819Z,10.15
2019-06-10T11:57:12.517Z,9.01
2019-06-10T12:02:18.630Z,8.56
2019-06-10T12:07:26.218Z,7.81
2019-06-10T12:12:34.035Z,7.71
2019-06-10T12:17:46.972Z,7.37
2019-06-10T12:22:49.516Z,6.56
2019-06-10T12:27:59.317Z,6.33
2019-06-10T12:33:05.590Z,6.49
2019-06-10T12:38:13.032Z,6.67
2019-06-10T12:43:17.870Z,6.52
2019-06-10T12:48:24.725Z,7.55
2019-06-10T12:53:32.662Z,6.62
2019-06-10T12:58:39.473Z,7.75
2019-06-10T13:03:47.072Z,7.22
2019-06-10T13:08:56.408Z,7.26
2019-06-10T13:14:04.010Z,6.77
2019-06-10T13:19:08.944Z,6.64
2019-06-10T13:24:16.543Z,6.11
2019-06-10T13:29:25.137Z,5.48
2019-06-10T13:34:32.455Z,5.33
2019-06-10T13:39:38.913Z,5.54
2019-06-10T13:44:46.594Z,6.95
2019-06-10T13:49:54.189Z,5.86
2019-06-10T13:55:04.004Z,6.72
2019-06-10T14:00:11.475Z,6.94
2019-06-10T14:10:23.433Z,8.41
2019-06-10T14:15:32.942Z,8.80
2019-06-10T14:20:38.222Z,9.12
2019-06-10T14:25:45.809Z,10.25
2019-06-10T14:30:54.019Z,11.13
2019-06-10T14:36:00.559Z,6.09
2019-06-10T14:41:08.235Z,4.67
2019-06-10T14:46:17.460Z,3.70
2019-06-10T14:51:23.113Z,5.37
2019-06-10T14:56:30.585Z,5.41
2019-06-10T15:01:38.303Z,5.77
2019-06-10T15:06:45.882Z,5.93
2019-06-10T15:11:53.498Z,6.84
2019-06-10T15:17:02.776Z,8.47
2019-06-10T15:22:09.488Z,10.91
2019-06-10T15:27:23.356Z,11.82
2019-06-10T15:32:34.014Z,4.97
2019-06-10T15:37:29.877Z,4.30
2019-06-10T15:42:37.483Z,4.09
2019-06-10T15:47:45.116Z,4.29
2019-06-10T15:52:52.744Z,8.37
2019-06-10T15:58:02.083Z,9.64
2019-06-10T16:03:07.522Z,9.43
2019-06-10T16:08:15.960Z,9.34
2019-06-10T16:13:25.633Z,9.05
2019-06-10T16:18:29.439Z,9.13
2019-06-10T16:23:37.054Z,9.08
2019-06-10T16:28:44.670Z,8.83
2019-06-10T16:33:52.831Z,8.60
2019-06-10T16:38:59.404Z,9.57
2019-06-10T16:44:07.033Z,10.57
2019-06-10T16:49:14.658Z,10.72
2019-06-10T16:54:24.241Z,28.54
2019-06-10T16:59:30.821Z,13.93
2019-06-10T17:04:36.901Z,16.26
2019-06-10T17:09:44.513Z,14.19
2019-06-10T17:14:52.713Z,11.95
2019-06-10T17:19:59.336Z,12.34
2019-06-10T17:25:06.978Z,14.29
2019-06-10T17:30:14.601Z,13.21
2019-06-10T17:35:22.233Z,13.91
2019-06-10T17:40:31.044Z,13.85
2019-06-10T17:45:37.011Z,15.80
2019-06-10T17:50:44.598Z,16.62
2019-06-10T17:55:52.245Z,17.95
2019-06-10T18:01:02.131Z,19.73
2019-06-10T18:06:07.046Z,20.34
2019-06-10T18:11:14.653Z,19.20
2019-06-10T18:16:23.199Z,15.96
2019-06-10T18:21:30.495Z,13.97
2019-06-10T18:26:37.909Z,11.93
2019-06-10T18:31:44.285Z,10.06
2019-06-10T18:36:52.136Z,8.93
2019-06-10T18:41:59.538Z,9.33
2019-06-10T18:47:07.190Z,8.98
2019-06-10T18:52:14.821Z,8.41
2019-06-10T18:57:22.574Z,9.61
2019-06-10T19:02:30.395Z,6.59
2019-06-10T19:07:38.707Z,6.00
2019-06-10T19:12:45.128Z,6.30
2019-06-10T19:17:53.602Z,6.45
2019-06-10T19:23:02.319Z,5.78
2019-06-10T19:28:07.041Z,5.52
2019-06-10T19:33:14.818Z,5.72
2019-06-10T19:38:23.254Z,6.75
2019-06-10T19:43:29.630Z,5.92
2019-06-10T19:48:41.190Z,7.45
2019-06-10T19:53:45.134Z,7.29
2019-06-10T19:58:52.954Z,7.91
2019-06-10T20:03:59.288Z,6.72
2019-06-10T20:09:06.888Z,6.66
2019-06-10T20:14:14.858Z,7.54
2019-06-10T20:19:22.593Z,6.86
2019-06-10T20:24:30.081Z,6.69
2019-06-10T20:29:37.896Z,6.93
2019-06-10T20:34:45.313Z,7.09
2019-06-10T20:39:53.896Z,9.89
2019-06-10T20:45:02.765Z,12.45
2019-06-10T20:50:07.301Z,17.84
2019-06-10T20:55:14.914Z,9.18
2019-06-10T21:00:25.649Z,9.10
2019-06-10T21:05:29.663Z,10.67
2019-06-10T21:10:37.266Z,9.74
2019-06-10T21:15:48.380Z,9.58
2019-06-10T21:20:56.096Z,10.84
2019-06-10T21:25:59.255Z,12.84
2019-06-10T21:31:06.852Z,10.16
2019-06-10T21:36:14.522Z,11.95
2019-06-10T21:41:22.711Z,10.46
2019-06-10T21:46:29.292Z,11.29
2019-06-10T21:51:36.889Z,12.87
2019-06-10T21:56:45.634Z,13.11
2019-06-10T22:01:51.626Z,11.13
2019-06-10T22:06:59.429Z,12.59
2019-06-10T22:12:07.034Z,15.69
2019-06-10T22:17:14.632Z,13.79
2019-06-10T22:22:22.216Z,13.91
2019-06-10T22:27:29.808Z,14.12
2019-06-10T22:32:37.432Z,14.16
2019-06-10T22:37:45.625Z,14.25
2019-06-10T22:42:54.038Z,14.15
2019-06-10T22:47:59.344Z,13.98
2019-06-10T22:53:06.937Z,14.43
2019-06-10T22:58:14.633Z,15.28
2019-06-10T23:03:22.198Z,15.57
2019-06-10T23:08:29.929Z,15.57
2019-06-10T23:13:37.521Z,16.27
2019-06-10T23:18:45.484Z,16.70
2019-06-10T23:23:55.417Z,19.00
2019-06-10T23:29:00.266Z,17.79
2019-06-10T23:34:07.816Z,19.11
2019-06-10T23:39:15.477Z,16.83
2019-06-10T23:44:23.270Z,17.11
2019-06-10T23:49:32.279Z,17.35
2019-06-10T23:54:38.061Z,17.74
2019-06-10T23:59:45.917Z,18.36
